Time;durP1;ratioP1;P1;durP2;ratioP2;P2;SDS_P1;SDS_P2;PMS_P1;PMS_P2;Temp;Humidity;BMP_temperature;BMP_pressure;BME280_temperature;BME280_humidity;BME280_pressure;Samples;Min_cycle;Max_cycle;Signal;HPM_P1;HPM_P2
2021/04/24 00:00:01;;;;;;;0.70;0.70;;;;;;;4.36;48.88;101714.53;6028072;29;20267;-70
2021/04/24 00:03:12;;;;;;;0.60;0.60;;;;;;;4.36;48.56;101720.78;6028108;29;20210;-73
2021/04/24 00:06:15;;;;;;;0.73;0.73;;;;;;;4.27;48.95;101723.56;6027929;29;20206;-70
2021/04/24 00:09:19;;;;;;;1.17;0.67;;;;;;;4.24;49.33;101726.56;6026906;29;20533;-69
2021/04/24 00:12:22;;;;;;;1.93;0.60;;;;;;;4.14;49.00;101721.25;6011147;29;20234;-70
2021/04/24 00:15:26;;;;;;;0.70;0.70;;;;;;;4.14;49.48;101720.38;6028072;29;20193;-70
2021/04/24 00:18:29;;;;;;;0.70;0.70;;;;;;;4.20;49.30;101722.47;6027786;29;20193;-70
2021/04/24 00:21:33;;;;;;;0.60;0.60;;;;;;;4.10;49.34;101702.81;6028067;29;20196;-70
2021/04/24 00:24:36;;;;;;;0.60;0.60;;;;;;;4.16;49.93;101713.00;6027556;29;20195;-70
2021/04/24 00:27:39;;;;;;;0.70;0.70;;;;;;;4.02;50.10;101719.78;6027956;29;20193;-70
2021/04/24 00:30:43;;;;;;;0.70;0.70;;;;;;;4.06;49.73;101731.09;6026350;29;20240;-70
2021/04/24 00:33:46;;;;;;;0.50;0.50;;;;;;;4.14;50.06;101733.88;6026384;29;20464;-70
2021/04/24 00:36:50;;;;;;;2.10;0.60;;;;;;;3.92;50.48;101735.19;6026374;29;20192;-70
2021/04/24 00:39:53;;;;;;;0.60;0.60;;;;;;;3.92;50.61;101728.94;6026656;29;20199;-71
2021/04/24 00:42:56;;;;;;;0.50;0.50;;;;;;;3.78;50.81;101736.56;6027591;29;20198;-71
2021/04/24 00:46:09;;;;;;;0.70;0.70;;;;;;;3.79;51.12;101732.88;6026618;29;20218;-71
2021/04/24 00:49:12;;;;;;;0.63;0.63;;;;;;;3.75;51.20;101736.84;6026107;29;20199;-71
2021/04/24 00:52:16;;;;;;;0.50;0.50;;;;;;;3.83;50.97;101732.56;6027334;29;20259;-71
2021/04/24 00:55:19;;;;;;;0.60;0.60;;;;;;;3.89;50.72;101731.94;6027384;29;20195;-71
2021/04/24 00:58:25;;;;;;;0.70;0.70;;;;;;;3.78;51.06;101739.25;6027015;29;20203;-71
2021/04/24 01:01:51;;;;;;;0.77;0.70;;;;;;;3.75;51.36;101736.84;6027502;29;20194;-70
2021/04/24 01:04:54;;;;;;;0.63;0.63;;;;;;;3.66;51.42;101745.88;5957377;30;20457;-71
2021/04/24 01:07:57;;;;;;;0.60;0.60;;;;;;;3.68;51.11;101730.38;5959453;30;20204;-70
2021/04/24 01:11:01;;;;;;;0.60;0.60;;;;;;;3.73;51.67;101749.66;5959148;30;20196;-71
2021/04/24 01:14:04;;;;;;;1.10;0.70;;;;;;;3.75;51.16;101753.06;5959437;30;20220;-71
2021/04/24 01:17:08;;;;;;;0.60;0.60;;;;;;;3.68;51.52;101746.56;5958079;30;20197;-71
2021/04/24 01:20:14;;;;;;;1.20;0.70;;;;;;;3.61;51.51;101713.09;5959218;30;20244;-71
2021/04/24 01:23:18;;;;;;;0.60;0.60;;;;;;;3.71;50.96;101746.28;5959160;30;20268;-72
2021/04/24 01:26:21;;;;;;;0.70;0.70;;;;;;;3.67;52.26;101752.94;5958028;30;20213;-71
2021/04/24 01:29:25;;;;;;;0.83;0.83;;;;;;;3.54;51.96;101760.56;5957827;30;20377;-71
2021/04/24 01:32:28;;;;;;;0.60;0.60;;;;;;;3.51;52.59;101749.22;5957654;30;20454;-71
2021/04/24 01:35:32;;;;;;;0.60;0.60;;;;;;;3.62;52.25;101757.94;5957950;30;20283;-71
2021/04/24 01:38:36;;;;;;;0.70;0.70;;;;;;;3.58;51.67;101756.56;5957655;30;20425;-71
2021/04/24 01:41:43;;;;;;;0.60;0.60;;;;;;;3.45;51.71;101756.06;5957136;29;20228;-72
2021/04/24 01:44:46;;;;;;;0.50;0.50;;;;;;;3.62;51.48;101744.44;5958383;30;20204;-71
2021/04/24 01:47:49;;;;;;;0.77;0.70;;;;;;;3.41;51.75;101748.41;5957493;30;20401;-71
2021/04/24 01:50:53;;;;;;;3.10;0.50;;;;;;;3.50;52.66;101748.34;5958333;30;20281;-71
2021/04/24 01:53:58;;;;;;;2.67;0.50;;;;;;;3.26;52.86;101750.75;5958144;30;20250;-71
2021/04/24 01:57:06;;;;;;;0.70;0.70;;;;;;;3.30;52.65;101746.75;5958184;30;20227;-71
2021/04/24 02:00:15;;;;;;;0.60;0.60;;;;;;;3.31;52.77;101748.47;5957414;30;20277;-72
2021/04/24 02:03:19;;;;;;;0.70;0.70;;;;;;;3.25;52.84;101742.78;5958288;30;20319;-72
2021/04/24 02:06:22;;;;;;;0.80;0.80;;;;;;;3.25;52.94;101738.25;5958345;29;20246;-71
2021/04/24 02:09:26;;;;;;;0.67;0.67;;;;;;;3.23;53.97;101744.78;5958300;30;20196;-72
2021/04/24 02:12:29;;;;;;;0.70;0.70;;;;;;;3.11;53.59;101757.59;5957883;30;20251;-71
2021/04/24 02:15:33;;;;;;;0.60;0.60;;;;;;;3.10;53.49;101745.13;5957199;30;20418;-72
2021/04/24 02:18:37;;;;;;;0.60;0.60;;;;;;;3.13;53.88;101755.63;5957809;30;20197;-72
2021/04/24 02:21:40;;;;;;;0.60;0.60;;;;;;;3.02;54.25;101753.09;5956835;30;20196;-73
2021/04/24 02:24:46;;;;;;;0.53;0.53;;;;;;;3.05;54.04;101758.19;5941119;30;20242;-71
2021/04/24 02:27:49;;;;;;;2.37;0.80;;;;;;;2.97;53.82;101752.69;5957873;30;20253;-70
2021/04/24 02:30:53;;;;;;;0.70;0.70;;;;;;;3.08;54.07;101752.50;5957879;30;20228;-72
2021/04/24 02:33:56;;;;;;;0.67;0.67;;;;;;;3.16;54.33;101763.38;5957493;30;20270;-72
2021/04/24 02:36:59;;;;;;;0.80;0.80;;;;;;;2.97;54.21;101742.75;5957833;30;20197;-71
2021/04/24 02:40:05;;;;;;;0.67;0.67;;;;;;;2.97;54.51;101753.53;5957414;30;20263;-71
2021/04/24 02:43:10;;;;;;;0.70;0.70;;;;;;;2.92;54.45;101757.66;5956897;30;20215;-72
2021/04/24 02:46:13;;;;;;;0.77;0.63;;;;;;;2.81;55.05;101755.13;5957413;30;20195;-71
2021/04/24 02:49:17;;;;;;;0.67;0.67;;;;;;;2.92;54.97;101763.03;5956622;30;20221;-71
2021/04/24 02:52:20;;;;;;;0.80;0.80;;;;;;;2.99;54.82;101748.84;5956565;30;20411;-72
2021/04/24 02:55:24;;;;;;;0.73;0.73;;;;;;;2.93;55.16;101752.09;5962031;29;20252;-72
2021/04/24 02:58:27;;;;;;;0.97;0.80;;;;;;;2.97;54.98;101748.13;5962135;30;20244;-71
2021/04/24 03:01:30;;;;;;;0.60;0.60;;;;;;;2.83;55.52;101762.06;5960780;29;20449;-72
2021/04/24 03:04:34;;;;;;;0.70;0.70;;;;;;;2.80;55.61;101758.81;5960937;30;20251;-72
2021/04/24 03:07:37;;;;;;;0.60;0.60;;;;;;;2.69;56.39;101756.28;5961707;30;20319;-71
2021/04/24 03:10:42;;;;;;;0.60;0.60;;;;;;;2.68;55.59;101746.47;5960977;30;20195;-71
2021/04/24 03:13:45;;;;;;;0.77;0.77;;;;;;;2.61;56.09;101769.63;5961489;30;20297;-71
2021/04/24 03:16:49;;;;;;;0.70;0.70;;;;;;;2.62;56.65;101757.84;5961662;30;20273;-71
2021/04/24 03:19:52;;;;;;;0.80;0.80;;;;;;;2.72;55.87;101766.78;5960446;30;20228;-72
2021/04/24 03:22:58;;;;;;;0.70;0.70;;;;;;;2.69;56.29;101767.06;5944638;30;20464;-72
2021/04/24 03:26:02;;;;;;;0.70;0.70;;;;;;;2.61;56.35;101758.84;5945950;30;20238;-72
2021/04/24 03:29:06;;;;;;;0.73;0.73;;;;;;;2.49;56.71;101740.13;5944662;30;20559;-72
2021/04/24 03:32:11;;;;;;;0.60;0.60;;;;;;;2.58;56.58;101769.88;5960200;30;20368;-72
2021/04/24 03:35:15;;;;;;;0.60;0.60;;;;;;;2.75;56.49;101761.09;5960472;30;20200;-72
2021/04/24 03:38:18;;;;;;;2.27;1.00;;;;;;;2.61;56.70;101761.53;5960495;30;20267;-72
2021/04/24 03:41:22;;;;;;;0.83;0.83;;;;;;;2.61;56.29;101764.22;5961311;30;20226;-71
2021/04/24 03:44:25;;;;;;;0.70;0.70;;;;;;;2.66;55.86;101767.34;5961146;30;20197;-71
2021/04/24 03:47:29;;;;;;;0.70;0.70;;;;;;;2.48;56.59;101775.28;5959905;30;20447;-71
2021/04/24 03:50:32;;;;;;;0.70;0.70;;;;;;;2.54;56.40;101770.16;5959839;29;20536;-72
2021/04/24 03:53:35;;;;;;;1.60;0.70;;;;;;;2.48;56.30;101760.00;5944321;30;20309;-72
2021/04/24 03:56:39;;;;;;;0.80;0.80;;;;;;;2.54;56.59;101762.09;5959813;30;20194;-72
2021/04/24 03:59:42;;;;;;;1.30;0.90;;;;;;;2.66;56.39;101778.13;5959686;30;20444;-71
2021/04/24 04:02:47;;;;;;;0.80;0.80;;;;;;;2.59;56.13;101767.06;5959337;30;20505;-72
2021/04/24 04:05:51;;;;;;;0.70;0.70;;;;;;;2.59;56.47;101760.81;5959871;29;20199;-71
2021/04/24 04:08:54;;;;;;;0.67;0.67;;;;;;;2.51;55.76;101770.47;5960537;30;20201;-71
2021/04/24 04:11:58;;;;;;;0.90;0.90;;;;;;;2.42;56.63;101776.72;5959314;30;20448;-70
2021/04/24 04:15:01;;;;;;;0.70;0.70;;;;;;;2.11;56.34;101718.59;5960135;29;20290;-72
2021/04/24 04:18:08;;;;;;;0.83;0.83;;;;;;;2.60;55.93;101767.91;5960192;30;20193;-71
2021/04/24 04:21:13;;;;;;;0.80;0.80;;;;;;;2.59;56.24;101777.84;5960048;30;20263;-71
2021/04/24 04:24:17;;;;;;;1.50;0.90;;;;;;;2.50;56.37;101768.78;5959429;30;20197;-71
2021/04/24 04:27:21;;;;;;;0.80;0.80;;;;;;;2.58;55.98;101769.88;5959129;30;20194;-71
2021/04/24 04:30:25;;;;;;;0.80;0.80;;;;;;;2.57;56.51;101779.00;5960011;30;20195;-71
2021/04/24 04:33:28;;;;;;;0.73;0.73;;;;;;;2.53;56.14;101768.50;5959817;30;20223;-71
2021/04/24 04:36:31;;;;;;;1.47;0.90;;;;;;;2.71;55.73;101775.84;5958731;30;20536;-70
2021/04/24 04:39:34;;;;;;;1.50;1.03;;;;;;;2.40;55.61;101781.41;5958691;29;20269;-72
2021/04/24 04:42:38;;;;;;;0.80;0.80;;;;;;;2.54;55.81;101775.56;5959655;30;20268;-71
2021/04/24 04:45:42;;;;;;;0.90;0.90;;;;;;;2.62;55.51;101765.94;5958450;30;20218;-72
2021/04/24 04:48:45;;;;;;;0.90;0.90;;;;;;;2.57;55.35;101784.38;5959856;30;20194;-71
2021/04/24 04:51:48;;;;;;;3.07;0.87;;;;;;;2.53;55.96;101773.88;5958527;30;20226;-72
2021/04/24 04:54:51;;;;;;;0.90;0.90;;;;;;;2.79;55.09;101774.13;5958413;30;20444;-71
2021/04/24 04:57:56;;;;;;;1.90;0.90;;;;;;;2.72;54.32;101774.84;5959347;30;20199;-72
2021/04/24 05:00:59;;;;;;;0.90;0.90;;;;;;;2.54;54.82;101770.16;5958592;30;20268;-72
2021/04/24 05:04:02;;;;;;;1.40;1.27;;;;;;;2.41;54.84;101753.44;5958599;30;20281;-72
2021/04/24 05:07:05;;;;;;;0.90;0.90;;;;;;;2.78;54.87;101771.56;5959194;30;20199;-71
2021/04/24 05:10:13;;;;;;;0.80;0.80;;;;;;;2.79;54.86;101767.88;5958388;30;20247;-72
2021/04/24 05:13:17;;;;;;;2.70;0.80;;;;;;;2.77;54.57;101769.88;5957956;30;20222;-71
2021/04/24 05:16:20;;;;;;;0.80;0.80;;;;;;;2.84;53.90;101776.41;5958122;29;20201;-72
2021/04/24 05:19:23;;;;;;;1.80;0.90;;;;;;;2.79;53.94;101775.97;5957809;30;20431;-71
2021/04/24 05:22:27;;;;;;;0.80;0.80;;;;;;;2.64;54.44;101780.09;5957816;29;20288;-71
2021/04/24 05:25:30;;;;;;;0.80;0.80;;;;;;;2.75;54.61;101771.88;5959045;30;20320;-71
2021/04/24 05:28:35;;;;;;;1.27;1.07;;;;;;;2.92;54.01;101780.06;5957806;30;20201;-71
2021/04/24 05:31:38;;;;;;;0.83;0.83;;;;;;;2.82;54.13;101783.78;5957798;30;20197;-72
2021/04/24 05:34:41;;;;;;;1.50;0.97;;;;;;;2.93;54.42;101762.03;5958544;30;20286;-72
2021/04/24 05:37:44;;;;;;;0.70;0.70;;;;;;;2.95;53.90;101778.94;5957585;30;20228;-71
2021/04/24 05:40:47;;;;;;;0.87;0.80;;;;;;;2.95;53.98;101779.75;5958400;30;20201;-72
2021/04/24 05:43:53;;;;;;;0.70;0.70;;;;;;;3.07;53.97;101761.59;5958461;30;20229;-71
2021/04/24 05:46:56;;;;;;;0.80;0.80;;;;;;;3.09;52.81;101776.63;5957483;30;20228;-71
2021/04/24 05:49:59;;;;;;;1.50;0.90;;;;;;;3.03;53.33;101760.19;5957434;30;20457;-72
2021/04/24 05:53:02;;;;;;;0.90;0.90;;;;;;;3.00;53.27;101765.88;5957897;30;20227;-72
2021/04/24 05:56:06;;;;;;;0.80;0.80;;;;;;;2.97;53.14;101779.63;5958488;30;20197;-72
2021/04/24 05:59:12;;;;;;;1.13;0.90;;;;;;;3.03;53.03;101766.41;5957184;30;20215;-71
2021/04/24 06:02:16;;;;;;;0.70;0.70;;;;;;;3.14;53.13;101766.25;5957811;30;20248;-71
2021/04/24 06:05:20;;;;;;;0.70;0.70;;;;;;;3.10;52.33;101780.19;5956911;30;20440;-71
2021/04/24 06:08:23;;;;;;;1.13;0.97;;;;;;;3.20;52.55;101764.81;5957835;30;20193;-71
2021/04/24 06:11:26;;;;;;;0.90;0.90;;;;;;;3.40;51.94;101768.28;5957814;29;20270;-71
2021/04/24 06:14:31;;;;;;;0.77;0.77;;;;;;;3.21;51.98;101779.16;5957799;30;20226;-72
2021/04/24 06:17:34;;;;;;;2.10;0.80;;;;;;;3.29;52.38;101763.09;5956782;30;20195;-71
2021/04/24 06:20:39;;;;;;;2.23;1.10;;;;;;;3.56;51.59;101755.88;5956547;30;20390;-72
2021/04/24 06:23:43;;;;;;;0.97;0.97;;;;;;;3.47;51.48;101770.25;5957585;30;20197;-72
2021/04/24 06:26:47;;;;;;;3.40;0.80;;;;;;;3.50;50.86;101769.09;5958048;30;20188;-72
2021/04/24 06:29:51;;;;;;;0.80;0.80;;;;;;;3.73;51.44;101779.34;5956293;30;20541;-72
2021/04/24 06:32:56;;;;;;;0.73;0.73;;;;;;;3.91;50.57;101751.53;5957565;30;20234;-71
2021/04/24 06:36:17;;;;;;;;;;;;;;;4.13;50.83;101749.28;5957979;30;20211;-72
2021/04/24 06:39:20;;;;;;;1.20;0.90;;;;;;;4.29;50.20;101756.66;5957467;30;20268;-72
2021/04/24 06:42:23;;;;;;;1.13;0.80;;;;;;;4.49;49.60;101773.59;5956771;30;20204;-71
2021/04/24 06:45:27;;;;;;;1.03;1.03;;;;;;;4.23;49.80;101768.09;5956500;30;20542;-71
2021/04/24 06:48:30;;;;;;;0.70;0.70;;;;;;;4.25;48.44;101766.94;5957463;30;20246;-72
2021/04/24 06:51:33;;;;;;;1.50;0.80;;;;;;;4.25;48.66;101760.69;5956437;30;20390;-72
2021/04/24 06:54:36;;;;;;;1.43;0.70;;;;;;;4.09;49.69;101772.16;5957150;30;20301;-71
2021/04/24 06:57:41;;;;;;;0.80;0.80;;;;;;;4.10;49.84;101763.06;5957559;30;20194;-72
2021/04/24 07:00:45;;;;;;;0.87;0.87;;;;;;;4.12;49.29;101757.50;5957617;30;20204;-72
2021/04/24 07:03:48;;;;;;;1.43;0.80;;;;;;;4.08;49.39;101759.69;5956680;30;20244;-72
2021/04/24 07:06:52;;;;;;;0.90;0.87;;;;;;;4.28;48.69;101746.88;5956223;30;20374;-71
2021/04/24 07:09:55;;;;;;;4.13;0.90;;;;;;;4.28;49.39;101760.38;5956249;30;20392;-72
2021/04/24 07:12:58;;;;;;;0.80;0.80;;;;;;;4.03;50.35;101777.34;5957095;30;20264;-72
2021/04/24 07:16:03;;;;;;;4.37;1.00;;;;;;;4.10;50.37;101762.22;5956793;30;20229;-71
2021/04/24 07:19:06;;;;;;;1.00;0.80;;;;;;;4.41;49.46;101766.25;5956912;30;20204;-71
2021/04/24 07:22:10;;;;;;;0.80;0.80;;;;;;;4.46;49.95;101785.56;5955767;30;20242;-72
2021/04/24 07:25:14;;;;;;;0.90;0.90;;;;;;;4.41;48.85;101787.88;5957109;30;20201;-71
2021/04/24 07:28:17;;;;;;;0.77;0.77;;;;;;;4.38;48.61;101778.22;5956155;30;20328;-71
2021/04/24 07:31:21;;;;;;;2.37;0.80;;;;;;;4.38;48.74;101788.19;5957219;30;20246;-72
2021/04/24 07:34:24;;;;;;;0.80;0.80;;;;;;;4.33;49.12;101785.09;5956883;30;20225;-71
2021/04/24 07:37:29;;;;;;;0.80;0.80;;;;;;;4.12;49.37;101771.00;5956780;30;20231;-73
2021/04/24 07:40:32;;;;;;;1.20;1.10;;;;;;;4.37;48.59;101786.47;5957282;29;20203;-72
2021/04/24 07:43:36;;;;;;;0.97;0.80;;;;;;;4.36;48.59;101790.19;5960211;30;20277;-72
2021/04/24 07:46:39;;;;;;;1.30;0.70;;;;;;;4.45;48.64;101781.16;5960939;30;20195;-72
2021/04/24 07:49:43;;;;;;;0.80;0.80;;;;;;;4.33;48.71;101787.78;5959939;30;20266;-72
2021/04/24 07:52:46;;;;;;;2.20;0.83;;;;;;;4.38;49.40;101788.19;5959712;30;20561;-71
2021/04/24 07:55:51;;;;;;;7.00;0.70;;;;;;;4.36;49.46;101779.38;5960874;30;20270;-71
2021/04/24 07:58:54;;;;;;;1.30;0.90;;;;;;;4.52;49.81;101774.09;5960873;30;20228;-71
2021/04/24 08:01:58;;;;;;;0.80;0.80;;;;;;;4.58;49.32;101778.91;5959557;29;20424;-72
2021/04/24 08:05:01;;;;;;;0.80;0.80;;;;;;;4.47;49.38;101776.44;5960629;30;20271;-72
2021/04/24 08:08:14;;;;;;;0.70;0.70;;;;;;;4.51;49.52;101787.78;5960362;30;20261;-72
2021/04/24 08:11:18;;;;;;;0.60;0.60;;;;;;;4.23;49.80;101789.72;5959414;30;20199;-71
2021/04/24 08:14:21;;;;;;;5.33;1.00;;;;;;;4.32;49.41;101802.28;5960094;30;20303;-71
2021/04/24 08:17:25;;;;;;;1.03;0.80;;;;;;;4.31;49.38;101804.13;5959709;30;20275;-71
2021/04/24 08:20:29;;;;;;;1.00;1.00;;;;;;;4.42;49.08;101801.22;5943522;30;20560;-71
2021/04/24 08:23:32;;;;;;;1.70;1.10;;;;;;;4.53;48.93;101813.66;5959005;30;20241;-71
2021/04/24 08:26:35;;;;;;;2.63;1.00;;;;;;;4.47;48.87;101814.25;5958893;30;20426;-71
2021/04/24 08:29:38;;;;;;;0.80;0.80;;;;;;;4.47;48.94;101808.84;5960060;30;20196;-71
2021/04/24 08:32:44;;;;;;;1.80;0.80;;;;;;;4.54;49.00;101817.22;5959188;30;20313;-72
2021/04/24 08:35:47;;;;;;;0.90;0.90;;;;;;;4.46;48.95;101819.84;5959830;30;20231;-72
2021/04/24 08:38:50;;;;;;;1.30;1.10;;;;;;;4.50;49.17;101819.34;5959873;30;20264;-72
2021/04/24 08:41:54;;;;;;;1.00;1.00;;;;;;;4.52;48.53;101817.34;5959837;30;20223;-71
2021/04/24 08:44:57;;;;;;;0.70;0.70;;;;;;;4.58;48.07;101827.56;5959603;30;20201;-72
2021/04/24 08:48:02;;;;;;;0.70;0.70;;;;;;;4.52;47.80;101825.47;5958420;30;20426;-70
2021/04/24 08:51:05;;;;;;;0.80;0.80;;;;;;;4.62;47.89;101818.16;5958369;29;20270;-72
2021/04/24 08:54:11;;;;;;;0.60;0.60;;;;;;;4.66;48.33;101824.94;5959463;30;20289;-72
2021/04/24 08:57:14;;;;;;;1.80;0.90;;;;;;;4.64;48.95;101821.53;5958773;30;20203;-72
2021/04/24 09:00:23;;;;;;;0.73;0.73;;;;;;;4.72;48.94;101824.31;5958227;30;20392;-72
2021/04/24 09:03:27;;;;;;;1.30;0.70;;;;;;;4.84;48.21;101831.19;5958812;30;20276;-72
2021/04/24 09:06:31;;;;;;;3.30;0.77;;;;;;;4.81;47.75;101839.59;5959490;30;20199;-72
2021/04/24 09:09:34;;;;;;;2.00;0.80;;;;;;;4.48;48.75;101853.81;5959141;30;20068;-72
2021/04/24 09:12:39;;;;;;;0.80;0.80;;;;;;;4.44;48.14;101841.63;5958981;30;20202;-71
2021/04/24 09:15:42;;;;;;;1.90;0.80;;;;;;;4.44;48.31;101830.81;5958645;30;20226;-71
2021/04/24 09:18:46;;;;;;;1.00;0.90;;;;;;;4.71;48.55;101843.38;5959436;30;20196;-73
2021/04/24 09:22:09;;;;;;;1.27;0.80;;;;;;;4.67;47.62;101842.88;5957943;30;20274;-71
2021/04/24 09:25:12;;;;;;;1.10;1.10;;;;;;;4.78;48.28;101829.09;5958962;30;20200;-71
2021/04/24 09:28:26;;;;;;;0.80;0.80;;;;;;;4.80;48.19;101834.38;5958572;30;20244;-71
2021/04/24 09:31:29;;;;;;;1.00;1.00;;;;;;;4.91;48.42;101845.78;5957585;30;20435;-71
2021/04/24 09:34:37;;;;;;;1.07;0.90;;;;;;;4.84;48.56;101844.69;5958002;30;20218;-71
2021/04/24 09:37:40;;;;;;;3.43;1.00;;;;;;;5.08;48.07;101836.78;5957406;30;20483;-72
2021/04/24 09:40:43;;;;;;;2.67;1.20;;;;;;;5.13;47.68;101843.59;5958289;30;20243;-71
2021/04/24 09:43:56;;;;;;;1.83;1.73;;;;;;;5.25;47.70;101842.31;5957326;30;20459;-72
2021/04/24 09:46:59;;;;;;;1.77;1.37;;;;;;;5.19;47.99;101842.97;5957962;30;20271;-72
2021/04/24 09:50:10;;;;;;;1.27;1.17;;;;;;;5.04;48.13;101843.50;5957947;30;20201;-72
2021/04/24 09:53:19;;;;;;;0.83;0.83;;;;;;;5.06;48.00;101848.75;5958077;30;20201;-72
2021/04/24 09:56:24;;;;;;;1.63;1.40;;;;;;;5.08;48.25;101863.00;5958139;30;20293;-72
2021/04/24 09:59:28;;;;;;;4.73;1.00;;;;;;;5.01;48.51;101868.16;5956855;30;20487;-72
2021/04/24 10:02:32;;;;;;;0.90;0.90;;;;;;;4.85;47.15;101856.38;5957529;29;20286;-72
2021/04/24 10:05:36;;;;;;;1.03;0.93;;;;;;;5.07;47.51;101861.28;5957748;30;20200;-72
2021/04/24 10:08:39;;;;;;;1.77;0.90;;;;;;;4.90;48.17;101875.69;5957711;30;20196;-71
2021/04/24 10:11:46;;;;;;;0.90;0.90;;;;;;;4.93;47.44;101854.56;5956722;30;20196;-72
2021/04/24 10:14:49;;;;;;;0.93;0.90;;;;;;;5.14;48.64;101867.75;5957387;30;20223;-72
2021/04/24 10:17:54;;;;;;;0.80;0.80;;;;;;;5.32;48.16;101860.47;5956765;30;20394;-72
2021/04/24 10:20:58;;;;;;;2.30;1.10;;;;;;;5.44;47.84;101863.78;5957590;30;20196;-72
2021/04/24 10:24:04;;;;;;;3.07;1.00;;;;;;;5.01;48.76;101873.56;5956242;30;20237;-71
2021/04/24 10:27:10;;;;;;;1.00;1.00;;;;;;;5.33;48.47;101864.88;5956430;30;20258;-71
2021/04/24 10:30:14;;;;;;;4.50;0.93;;;;;;;5.36;48.72;101855.59;5957342;30;20195;-71
2021/04/24 10:33:22;;;;;;;2.10;0.93;;;;;;;5.35;47.77;101870.97;5956760;30;20381;-72
2021/04/24 10:36:26;;;;;;;0.83;0.80;;;;;;;5.33;48.37;101874.84;5955963;30;20590;-72
2021/04/24 10:39:32;;;;;;;3.80;1.13;;;;;;;5.42;47.94;101876.59;5957540;30;20195;-72
2021/04/24 10:42:36;;;;;;;1.40;0.90;;;;;;;5.31;48.21;101874.16;5956108;30;20252;-72
2021/04/24 10:45:40;;;;;;;1.40;0.80;;;;;;;5.42;48.58;101887.41;5957051;30;20414;-72
2021/04/24 10:48:43;;;;;;;1.27;0.90;;;;;;;5.29;47.99;101887.00;5957344;29;20195;-72
2021/04/24 10:51:58;;;;;;;1.17;0.73;;;;;;;5.37;48.21;101895.16;5956307;30;20234;-72
2021/04/24 10:55:25;;;;;;;0.87;0.87;;;;;;;5.38;48.75;101899.59;5957004;30;20298;-72
2021/04/24 10:58:31;;;;;;;0.83;0.83;;;;;;;5.43;49.05;101891.84;5957013;30;20263;-73
2021/04/24 11:02:01;;;;;;;3.50;0.90;;;;;;;5.60;49.20;101899.91;5956705;29;20196;-71
2021/04/24 11:05:25;;;;;;;2.87;1.03;;;;;;;5.44;50.25;101890.84;5934680;30;20209;-72
2021/04/24 11:08:28;;;;;;;0.87;0.87;;;;;;;5.57;50.27;101892.09;5935004;30;20207;-72
2021/04/24 11:11:31;;;;;;;1.03;1.00;;;;;;;5.90;50.37;101890.50;5934007;30;20499;-72
2021/04/24 11:14:35;;;;;;;1.00;1.00;;;;;;;5.49;50.78;101912.88;5934535;30;20286;-72
2021/04/24 11:17:39;;;;;;;1.23;1.00;;;;;;;5.53;49.98;101901.56;5939298;30;20204;-71
2021/04/24 11:20:52;;;;;;;0.80;0.80;;;;;;;5.62;49.93;101916.00;5938173;30;20491;-72
2021/04/24 11:23:58;;;;;;;3.13;1.07;;;;;;;5.58;49.89;101903.78;5938746;30;20210;-72
2021/04/24 11:27:02;;;;;;;3.07;0.93;;;;;;;6.02;50.08;101897.31;5938647;30;20224;-72
2021/04/24 11:30:06;;;;;;;0.80;0.80;;;;;;;5.84;49.01;101869.41;5938366;30;20232;-72
2021/04/24 11:33:30;;;;;;;2.33;1.00;;;;;;;5.91;48.80;101894.88;5938143;30;20509;-72
2021/04/24 11:36:34;;;;;;;1.37;1.23;;;;;;;6.09;49.05;101906.50;5938263;30;20225;-72
2021/04/24 11:39:38;;;;;;;1.20;1.20;;;;;;;6.25;49.15;101895.72;5939015;30;20202;-72
2021/04/24 11:42:51;;;;;;;2.93;1.40;;;;;;;6.20;48.46;101906.22;5938833;30;20229;-72
2021/04/24 11:46:04;;;;;;;1.30;1.20;;;;;;;6.18;48.01;101924.50;5938803;30;20240;-72
2021/04/24 11:49:09;;;;;;;1.00;1.00;;;;;;;6.29;48.69;101910.63;5938527;30;20195;-72
2021/04/24 11:52:13;;;;;;;1.10;1.10;;;;;;;6.12;48.43;101903.47;5937748;30;20206;-73
2021/04/24 11:55:19;;;;;;;1.00;1.00;;;;;;;6.36;48.04;101910.00;5937126;30;20395;-71
2021/04/24 11:58:22;;;;;;;1.13;0.90;;;;;;;6.41;47.69;101911.22;5938211;30;20236;-72
2021/04/24 12:01:26;;;;;;;1.50;0.90;;;;;;;6.46;48.14;101908.00;5938385;30;20240;-72
2021/04/24 12:04:32;;;;;;;3.03;1.03;;;;;;;6.56;47.49;101901.41;5958937;30;20248;-72
2021/04/24 12:07:39;;;;;;;1.30;1.20;;;;;;;6.37;47.04;101879.19;5959308;30;20201;-71
2021/04/24 12:10:43;;;;;;;0.83;0.83;;;;;;;6.29;46.74;101899.78;5960254;30;20239;-71
2021/04/24 12:13:48;;;;;;;0.90;0.90;;;;;;;6.19;47.18;101926.19;5959383;30;20194;-72
2021/04/24 12:16:52;;;;;;;0.80;0.77;;;;;;;6.32;46.79;101904.03;5960353;30;20225;-71
2021/04/24 12:19:55;;;;;;;2.53;1.07;;;;;;;6.38;47.65;101908.81;5960343;30;20260;-72
2021/04/24 12:23:00;;;;;;;5.83;1.00;;;;;;;6.26;49.06;101932.66;5958961;30;20472;-71
2021/04/24 12:26:04;;;;;;;0.70;0.70;;;;;;;6.16;50.82;101921.06;5959340;29;20212;-71
2021/04/24 12:29:07;;;;;;;0.97;0.97;;;;;;;6.43;50.09;101911.03;5960078;30;20201;-71
2021/04/24 12:32:13;;;;;;;0.93;0.93;;;;;;;6.48;49.44;101903.25;5959700;29;20238;-71
2021/04/24 12:35:22;;;;;;;0.87;0.87;;;;;;;6.46;49.76;101883.59;5959972;30;20221;-71
2021/04/24 12:38:28;;;;;;;1.20;1.10;;;;;;;6.53;50.10;101906.31;5959661;30;20198;-72
2021/04/24 12:41:32;;;;;;;1.07;1.07;;;;;;;6.83;48.42;101903.03;5959641;30;20197;-72
2021/04/24 12:44:35;;;;;;;1.03;1.03;;;;;;;6.86;47.93;101894.53;5958524;30;20201;-72
2021/04/24 12:47:39;;;;;;;0.90;0.90;;;;;;;6.82;46.99;101921.16;5959071;30;20214;-71
2021/04/24 12:50:44;;;;;;;0.90;0.90;;;;;;;6.79;45.96;101898.94;5958343;30;20236;-71
2021/04/24 12:53:49;;;;;;;7.13;0.90;;;;;;;6.80;47.05;101900.63;5959410;30;20204;-71
2021/04/24 12:57:16;;;;;;;1.80;1.00;;;;;;;6.85;45.55;101906.41;5958310;30;20493;-72
2021/04/24 13:00:21;;;;;;;1.50;1.07;;;;;;;6.99;45.34;101913.03;5959174;30;20243;-72
2021/04/24 13:03:32;;;;;;;1.00;1.00;;;;;;;6.92;45.75;101912.84;5958731;30;20253;-72
2021/04/24 13:06:37;;;;;;;1.10;1.10;;;;;;;6.71;46.67;101915.19;5959157;30;20201;-72
2021/04/24 13:09:40;;;;;;;0.93;0.87;;;;;;;6.94;47.24;101932.53;5957998;30;20426;-72
2021/04/24 13:12:52;;;;;;;0.93;0.80;;;;;;;6.39;51.06;101940.34;5960145;30;20204;-71
2021/04/24 13:15:55;;;;;;;1.00;1.00;;;;;;;6.02;53.69;101940.66;5959547;30;20447;-71
2021/04/24 13:18:58;;;;;;;0.83;0.83;;;;;;;6.19;55.25;101942.44;5959145;30;20228;-73
2021/04/24 13:22:01;;;;;;;1.60;1.60;;;;;;;6.23;56.14;101937.56;5957735;30;20366;-71
2021/04/24 13:25:09;;;;;;;1.20;1.10;;;;;;;5.97;57.00;101929.47;5957711;30;20488;-72
2021/04/24 13:28:26;;;;;;;3.27;2.00;;;;;;;5.98;55.64;101933.88;5958614;30;20197;-70
2021/04/24 13:31:30;;;;;;;1.97;1.57;;;;;;;6.20;54.66;101927.88;5958240;30;20269;-71
2021/04/24 13:34:34;;;;;;;1.43;1.00;;;;;;;6.50;53.23;101912.06;5957611;30;20484;-71
2021/04/24 13:37:37;;;;;;;1.00;1.00;;;;;;;6.79;53.25;101907.91;5956687;29;20223;-71
2021/04/24 13:40:42;;;;;;;1.10;1.10;;;;;;;6.77;52.12;101920.81;5958078;30;20224;-71
2021/04/24 13:43:46;;;;;;;1.10;1.10;;;;;;;6.72;51.11;101916.88;5957364;30;20364;-71
2021/04/24 13:46:52;;;;;;;0.90;0.90;;;;;;;6.61;52.63;101920.75;5957091;30;20201;-72
2021/04/24 13:49:55;;;;;;;0.97;0.97;;;;;;;6.40;53.53;101933.03;5958592;30;20242;-71
2021/04/24 13:52:59;;;;;;;0.80;0.80;;;;;;;6.10;55.34;101929.03;5942715;30;20220;-71
2021/04/24 13:56:02;;;;;;;4.60;1.10;;;;;;;6.35;55.24;101935.38;5957862;30;20227;-71
2021/04/24 13:59:07;;;;;;;1.17;1.17;;;;;;;6.26;57.10;101938.09;5956955;30;20363;-71
2021/04/24 14:02:14;;;;;;;1.00;1.00;;;;;;;6.21;55.43;101951.25;5956822;29;20240;-71
2021/04/24 14:05:17;;;;;;;1.00;1.00;;;;;;;6.18;54.39;101940.75;5940836;30;20209;-71
2021/04/24 14:08:21;;;;;;;1.00;1.00;;;;;;;6.32;54.46;101942.84;5957898;30;20197;-71
2021/04/24 14:11:24;;;;;;;3.40;1.17;;;;;;;6.49;54.08;101937.50;5956879;30;20197;-71
2021/04/24 14:14:28;;;;;;;1.10;1.10;;;;;;;6.58;54.07;101925.66;5958186;30;20204;-71
2021/04/24 14:17:32;;;;;;;1.23;1.23;;;;;;;6.51;53.78;101935.47;5957752;30;20296;-71
2021/04/24 14:20:35;;;;;;;1.10;1.10;;;;;;;6.58;52.26;101940.06;5956781;30;20390;-71
2021/04/24 14:23:39;;;;;;;1.63;1.10;;;;;;;6.59;51.83;101940.91;5957625;30;20194;-71
2021/04/24 14:26:43;;;;;;;1.00;1.00;;;;;;;6.37;52.22;101949.66;5957615;30;20197;-71
2021/04/24 14:29:47;;;;;;;0.97;0.97;;;;;;;6.39;52.15;101936.78;5957501;30;20235;-71